Cash's Hourly Summary for Saturday, March 18, 2017
Hour Temp
(f)
RH
(%)
Solar Rad.
(MJ/m2)
Rainfall
(in)
Wind
(mph)
3/18/2017 12:00 AM 68 71 0 0 0.41
3/18/2017 1:00 AM 67 73 0 0 1.84
3/18/2017 2:00 AM 66 74 0 0 3.11
3/18/2017 3:00 AM 65 76 0 0 2.38
3/18/2017 4:00 AM 64 82 0 0 1.14
3/18/2017 5:00 AM 62 86 0 0 0.4
3/18/2017 6:00 AM 60 92 0 0 0.08
3/18/2017 7:00 AM 60 95 0 0 0.02
3/18/2017 8:00 AM 60 97 0.01 0 0.01
3/18/2017 9:00 AM 62 92 0.13 0 2.03
3/18/2017 10:00 AM 64 86 0.32 0 4.45
3/18/2017 11:00 AM 66 83 0.54 0 6.14
3/18/2017 12:00 PM 67 77 0.78 0 4.11
3/18/2017 1:00 PM 69 74 0.96 0 2.46
3/18/2017 2:00 PM 70 72 1.11 0 2.75
3/18/2017 3:00 PM 70 72 0.93 0 2.99
3/18/2017 4:00 PM 71 69 1.29 0 4.25
3/18/2017 5:00 PM 72 66 1.36 0 5.37
3/18/2017 6:00 PM 73 66 1.36 0 5.18
3/18/2017 7:00 PM 73 66 0.61 0 4.44
3/18/2017 8:00 PM 70 70 0.06 0 1.93
3/18/2017 9:00 PM 66 82 0 0 1.67
3/18/2017 10:00 PM 66 83 0 0 3.17
3/18/2017 11:00 PM 65 85 0 0 3.12
Data Summary 66 78 9.46 0.00 2.64